CHERITA, SEDOKA AND LIMERICK

Folder Contents

Author's Full Portfolio

Title Comments Views Updated Posted
1 FAKE GODS 34 2020/11/28 1 day ago
2 PHILLY IN PINK HAZE 40 2020/11/27 2 days ago
3 DAMN PAPARAZZI 35 2020/11/25 4 days ago
4 WISTFUL WINKS 33 2020/11/19 1 week ago
5 COPACETIC MUSES 47 2020/11/10 2 weeks ago
6 UTOPIAN FANTASY 38 2020/11/03 3 weeks ago
7 SACRED COW 2 41 2020/11/02 3 weeks ago
8 DOMESTICATED HEADHUNTER 4 62 2020/11/16 4 weeks ago
9 GHOSTS POPULATE THE ATTIC 2 69 2020/10/29 4 weeks ago
10 JETTISON THE MILK 48 2020/10/24 5 weeks ago
11 PERPLEXED BY CYNICISM 109 2020/10/16 6 weeks ago
12 AESTHETIC VALUES 50 2020/10/14 6 weeks ago
13 PERFUMED SCENT 8 62 2020/10/12 6 weeks ago
14 ROUTINE HUMDRUM 2 89 2020/10/05 7 weeks ago
15 INDESTRUCTIBLE 71 2020/10/05 7 weeks ago
16 TRAMPOLINE 6 124 2020/10/01 8 weeks ago
17 DANCING RAINDROPS 1 72 2020/09/21 9 weeks ago
18 PARADISE ALLUDED 2 66 2020/09/20 10 weeks ago
19 NAMELESS LADY 2 61 2020/09/17 10 weeks ago
20 SKA BEAT 2 59 2020/09/16 10 weeks ago
21 CRUEL JOKE 2 68 2020/09/15 10 weeks ago
22 LOMBARDI'S BLEMISH 2 77 2020/09/12 11 weeks ago
23 SILENCE WHISTLES 1 57 2020/09/07 11 weeks ago
24 IRISHED UP JAVA 2 100 2020/09/03 12 weeks ago
25 MY OWN PRIVATE MARDI GRAS 140 2020/07/29 17 weeks ago
26 7 BUCKS IT IS 2 70 2020/07/25 18 weeks ago
27 SPIES LIKE US 113 2020/07/23 18 weeks ago
28 BATTERY ON ZERO 4 103 2020/07/23 18 weeks ago
29 SPLITTING AN ATOM 75 2020/07/21 18 weeks ago
30 WHO HID THE REMOTE 71 2020/07/20 18 weeks ago
31 OF PANIC AND YEARNING 4 78 2020/07/15 19 weeks ago
32 DEFEND THE NIGHT 91 2020/06/15 23 weeks ago
33 INCANDESCENT RUBIES 2 84 2020/06/13 24 weeks ago
34 STEP ABOVE 4 78 2020/06/11 24 weeks ago
35 ELUDES THE NET 4 117 2020/06/08 24 weeks ago
36 CONSPIRACY 2 94 2020/06/06 25 weeks ago
37 BATTERY ACID 92 2020/06/03 25 weeks ago
38 CALL TO ARMS 2 89 2020/06/02 25 weeks ago
39 WHIMSICAL ALARM 92 2020/06/01 25 weeks ago
40 FINAL FRONTIER 2 105 2020/05/31 25 weeks ago
41 ELASTIC FIGURINES 124 2020/05/30 26 weeks ago
42 SLOW TRICKLE 2 86 2020/05/30 26 weeks ago
43 WOUNDS OF A TORN HEART 86 2020/05/26 26 weeks ago
44 NO-THINGNESS 4 111 2020/05/25 26 weeks ago
45 CAMOUFLAGE SLEEPING BAG 9 104 2020/05/24 26 weeks ago
46 MY JAMAICAN FANTASY 93 2020/05/21 27 weeks ago
47 FIRING SQUAD 2 89 2020/05/20 27 weeks ago
48 ENDLESS UTOPIAN DREAMS 103 2020/05/19 27 weeks ago
49 UNOBTRUSIVE REFLEX 3 109 2020/05/17 27 weeks ago
50 WAYLAY THE NEW DAY 8 138 2020/05/17 27 weeks ago
51 SIMILES OF GODDESSES 2 145 2020/05/16 28 weeks ago
52 DELUSIVE GOLD CARD 1 101 2020/05/15 28 weeks ago
53 FAKE I.D. 2 161 2020/05/13 28 weeks ago
54 PECULIAR RHYTHM 102 2020/05/12 28 weeks ago
55 OBSCENE ODES TO ISIS 2 232 2020/05/11 28 weeks ago
56 TOO COOL MORNING 4 105 2020/05/10 29 weeks ago
57 ALCHEMIST'S POTION 110 2020/05/05 29 weeks ago
58 CONTROLLED CHAOS IN MY HEART 118 2020/05/04 29 weeks ago
59 BLIND CONFORMISTS 4 102 2020/05/03 29 weeks ago
60 HUMAN AURAS 115 2020/05/02 30 weeks ago
61 COMPLETELY ENVELOPED 2 97 2020/05/02 30 weeks ago
62 LUMINATED LAMP SHADE 100 2020/05/01 30 weeks ago
63 ANALYST NAMED FREUD 4 132 2020/04/28 30 weeks ago
64 A ONCE RURAL ROAD 2 93 2020/04/28 30 weeks ago
65 WALKING THE DOG 106 2020/04/24 31 weeks ago
66 CARTWHEELING TO THE GRAVE 105 2020/04/23 31 weeks ago
67 MOUNTAIN MUD 2 116 2020/04/21 31 weeks ago
68 SLAIN BY THE MOB 103 2020/04/19 31 weeks ago
69 GILDED IN GOLD 4 180 2020/04/18 32 weeks ago
70 ZODIACS OF THEORY 4 125 2020/04/15 32 weeks ago
71 NOW IS THE ONLY TIME 101 2020/04/13 32 weeks ago
72 ORISON CHANTED 2 110 2020/04/11 33 weeks ago
73 SPITTING CRISP JEWELS 233 2020/04/10 33 weeks ago
74 DECADENCE PERSISTS 2 103 2020/04/08 33 weeks ago
75 CADENCE OF MOLIERÉ 107 2020/04/06 33 weeks ago
76 NORSE DEITIES 101 2020/04/04 34 weeks ago
77 WILD BILL IS SHOT 105 2020/04/01 34 weeks ago
78 PSALMS ORATED 2 109 2020/03/27 35 weeks ago
79 EXORCISM OF SOUL 2 105 2020/03/23 35 weeks ago
80 BROKEN GLASS INFERNO 106 2020/03/22 35 weeks ago
81 DISCRIMINATORY COLORS 2 107 2020/03/22 35 weeks ago
82 DANCE OF COYOTES 2 120 2020/03/21 36 weeks ago
83 WORDS MYSTIQUE 2 121 2020/03/21 36 weeks ago
84 COMMA 112 2020/02/28 39 weeks ago
85 PISS POOR COMMUNIQUÉ 4 138 2020/02/28 39 weeks ago
86 EMPTY POUCH 152 2020/02/26 39 weeks ago
87 CURIOUS BYSTANDER 163 2020/02/23 40 weeks ago
88 CUPID RHYMES WITH STUPID 4 167 2020/02/22 40 weeks ago
89 WINES OF GALAXIES 2 150 2020/02/21 40 weeks ago
90 BILINGUAL SPLENDOR 2 157 2020/02/19 40 weeks ago
91 ECSTATIC WORDS 2 117 2020/02/18 40 weeks ago
92 TWISTED MUSTACHE 166 2020/02/09 42 weeks ago
93 I WANTED TO READ WHITMAN 6 221 2020/02/08 42 weeks ago
94 RAINY MORNING DAWN 4 146 2020/02/07 42 weeks ago
95 A BLANK PAGE 2 156 2020/02/06 42 weeks ago
96 LATEST, STUPID MEME 117 2020/02/04 42 weeks ago
97 WROTE POEMS TO GET LAID 117 2020/02/04 42 weeks ago
98 JETTISONED FROM THE PEDESTAL 2 126 2020/02/02 42 weeks ago
99 WALTZ OVER BROKEN GLASS 133 2020/02/01 43 weeks ago
100 ENDLESSLY CASCADE 175 2020/02/01 43 weeks ago
101 WARNING SIGNS 2 140 2020/01/30 43 weeks ago
102 ANSWERS SOUGHT 115 2020/01/29 43 weeks ago
103 WRITTEN BY SCHOLARS 175 2020/01/27 43 weeks ago
104 VISIONARY POETS 118 2020/01/27 43 weeks ago
105 YOU MUST BE SHROOMIN' 240 2020/01/24 44 weeks ago
106 IGUANA RAIN 117 2020/01/22 44 weeks ago
107 A MERE DUSTING 114 2020/01/20 44 weeks ago
108 JEJUNE YOUNGSTER 137 2020/01/19 44 weeks ago
109 AUBURN FOX 143 2020/01/18 45 weeks ago
110 PIGEONS PLAYING CHICKEN 4 163 2020/01/17 45 weeks ago
111 SINFULLY DELISH 2 237 2020/01/17 45 weeks ago
112 I NEED TO LEARN 5 154 2020/01/10 46 weeks ago
113 FANCIED MEESELF A POET 2 155 2020/01/08 46 weeks ago
114 AUTHOR OF THIS GRAFFITI 185 2020/01/04 47 weeks ago
115 LATEST TREND 137 2020/01/04 47 weeks ago
116 RAIN DELAY 147 2020/01/03 47 weeks ago
117 SUDDENLY WORDS DON'T FLOW 169 2020/01/01 47 weeks ago
118 BYPASSING THE SCHUYLKILL 2 150 2019/12/31 47 weeks ago
119 TARNISHING TUNDRA 149 2019/12/22 48 weeks ago
120 COOL DECEMBER AIR 171 2019/12/18 49 weeks ago
121 VIKING NIGHT 129 2019/12/17 49 weeks ago
122 URBAN BLIGHT 212 2019/12/11 50 weeks ago
123 BUILT IN A DAY 161 2019/12/03 51 weeks ago
124 LEON TROTSKY 280 2019/12/03 51 weeks ago
125 MODICUM OF HOPE 196 2019/12/01 51 weeks ago
126 NORTH STAR BAR 148 2019/11/28 1 year ago
127 DEMONIC SOUNDS 201 2019/11/24 1 year ago
128 HEAD OVER HEELS 202 2019/11/21 1 year ago
129 TRASH PICKER 200 2019/11/20 1 year ago
130 BODY COUNT 330 2020/01/27 1 year ago
131 FURNISHED APARTMENT 203 2019/11/17 1 year ago
132 CURRENT ORBIT 2 226 2019/11/14 1 year ago
133 MEMPHIS MINNIE 308 2019/11/13 1 year ago
134 TREASURE CHEST 2 224 2019/11/12 1 year ago
135 HELL'S BELLS 191 2019/11/11 1 year ago
136 PUSSY RIOT BADGE 253 2019/11/09 1 year ago
137 SELF MADE PEDESTAL 2 294 2019/11/08 1 year ago
138 WISE AMONG US 177 2019/11/04 1 year ago
139 DAMN ROOSTER 209 2019/11/03 1 year ago
140 ENDLESS IMAGES 2 233 2019/11/03 1 year ago
141 NORTH PHILADELPHIA STATION 2 221 2019/11/02 1 year ago
142 ENOUGH CLICHÉ 4 464 2019/11/01 1 year ago
143 EXCELLENT MISERY 2 492 2019/10/31 1 year ago
144 STREET LAMP GLOWING 195 2019/10/30 1 year ago
145 SURREAL COMEDY 210 2019/10/27 1 year ago
146 NEW WORLD OUT OF ORDER 184 2019/10/23 1 year ago
147 APOLITICAL CREATIVITY 2 182 2019/10/22 1 year ago
148 BEER COASTER 203 2019/10/21 1 year ago
149 BOUND & GAGGED 150 2019/10/20 1 year ago
150 DRINK WITH BUKOWSKI 170 2019/10/18 1 year ago
151 FALSAMUNDO! 288 2019/10/18 1 year ago
152 TRUE TREASURE 2 256 2019/10/18 1 year ago
153 CYNICISM MET WITH SCORN 2 370 2019/10/18 1 year ago
154 GOING TO NEW ORLEANS 249 2019/10/18 1 year ago
155 LASS FROM MANHATTAN 2 253 2019/10/18 1 year ago
156 MEGAN'S GOLDEN BOOT 2 509 2019/10/18 1 year ago
157 BEASTLY BUT BEAUTIFUL (limerick) 327 2019/10/18 1 year ago
158 MAGICAL PILL 249 2019/10/18 1 year ago
159 MEANINGLESS JOB 278 2019/10/26 1 year ago
160 LADIES GARMENTS 229 2019/10/18 1 year ago
161 DUDE (LIMERICK) 2 301 2019/10/18 1 year ago
162 LIMERICKS ARE FINE 3 242 2019/10/18 1 year ago